Résultats

4ème Course Nature de la Ciotat. Édition 2014.

15 Km
16/11/2014 à 00:00:00 - ()
371 arrivant(e)s.


 
Les autres classements de cet évènement




Place▲ Temps Dossard Nom Prenom Categ #Categ Sexe #Sexe Club Vit Moy Diplôme Partager
1 00:58:21 765 BRUN JEAN-PIERRE V2M 1 M 1 15.94
2 00:58:38 1032 TRON ALEXANDRE SEM 1 M 2 PEYNIER 15.86
3 00:59:09 927 MARTIN NICOLAS SEM 2 M 3 TRAIL CLUB DES FOUS 15.72
4 00:59:35 915 MANENT GILBERT V2M 2 M 4 CA VEYNES 15.61
5 01:00:31 834 FAYOLLE STEPHANE SEM 3 M 5 CEF MARATHONIEN 15.37
6 01:00:36 1062 PROIETTO JEAN-FRANCK V2M 3 M 6 OCCP 15.35
7 01:00:42 1122 PEREZ LUCAS SEM 4 M 7 KALENZI 15.32
8 01:01:19 849 GERMAIN JULIEN V1M 1 M 8 MARSEILLE TRAIL CLUB 15.17
9 01:01:34 1109 BOUDA STEPHANE V1M 2 M 9 RANDO RAID TRAIL 83 9.9
10 01:01:54 1041 VOGT PIERRE-ELOI SEM 5 M 10 9.9
11 01:02:34 980 RAHALI HOSNI V1M 3 M 11 KM42.195 MARSEILLE 14.86
12 01:03:15 1115 ODABACHIAN GILLES SEM 6 M 12 14.70
13 01:03:21 1052 VOLPE MAXERNCE SEM 7 M 13 PACARAID 14.68
14 01:03:30 997 SANTONI FRANCK V1M 4 M 14 RANDO RAID TRAIL 83 14.65
15 01:03:34 1108 LIBRE EMMANUEL SEM 8 M 15 14.63
16 01:03:49 1095 DE-SIANO THIERRY V2M 4 M 16 SMAC 14.57
17 01:03:53 1097 JACKSON SHAUN V1M 5 M 17 14.56
18 01:04:10 921 MARCHETTI CHRISTOPHE V1M 6 M 18 14.49
19 01:04:13 776 CARVIN JEREMIE SEM 9 M 19 AS CARNOUX JOGGING 14.48
20 01:04:31 939 MICHEL ERIC V1M 7 M 20 FOULEE DE GREASQUE 14.41
21 01:04:40 926 MARTIN LOLO V2M 5 M 21 TRAIL CLUB DES FOUS 14.38
22 01:04:44 868 HADDJERI BARDAD V1M 8 M 22 KM42.195 MARSEILLE 14.37
23 01:04:56 1071 DEJEAN PATRICK V2M 6 M 23 MAUGUIO TRIATHLON 14.32
24 01:05:05 964 PARIS OLIVIER SEM 10 M 24 COURIR POUR DES POMMES 14.29
25 01:05:18 869 HAMMADI SOPHIEN SEM 11 M 25 OCCP LA CIOTAT 14.24
26 01:05:37 1026 TOLLARI LAURENT SEM 12 M 26 14.17
27 01:05:44 723 ALLASIA ANTHONY SEM 13 M 27 TRAIL CLUB PROVENCE 14.15
28 01:05:48 933 MATTIO LAURENT V1M 9 M 28 14.13
29 01:06:05 1011 SOMANO REMY ESM 1 M 29 CEF MARATHONIEN 9.9
30 01:06:29 910 LONGO GILBERT V2M 7 M 30 KM42.195 MARSEILLE 13.99
31 01:06:37 934 MAURINO DAVID SEM 14 M 31 KM42.195 MARSEILLE 13.96
32 01:06:44 1057 BUNEL PATRICK V2M 8 M 32 KM42.195 MARSEILLE 13.94
33 01:07:16 929 MARTINS-RODRIGUES ARMINDO V2M 9 M 33 RTP 13.83
34 01:07:23 1014 SPY AUDREY SEF 1 F 1 LE LIEVRE ET LA TORTUE 13.80
35 01:07:42 859 GUERRERO JEAN-MICHEL V1M 10 M 34 13.74
36 01:07:48 815 DENIS DAVID SEM 15 M 35 13.72
37 01:07:56 922 MARIO LIONEL SEM 16 M 36 TRAIL CLUB DES FOUS 13.69
38 01:07:59 735 AUGRY DAMIEN SEM 17 M 37 CA VEYNES 13.68
39 01:08:22 829 ERNSTBERGER JEROME V1M 11 M 38 EPM 13 13.60
40 01:08:28 1058 WILSON JOHN V1M 12 M 39 13.58
41 01:08:36 788 CHERON NOEL V1M 13 M 40 13.56
42 01:08:58 772 CARA LOUIS V2M 10 M 41 USTM JOGGING 13.48
43 01:09:11 882 KENANE DJEMEL V2M 11 M 42 13.44
44 01:09:35 1027 TONUSSI GREGORY SEM 18 M 43 AUBAGNE TRIATHLON 13.37
45 01:09:39 1047 ZULESI JEAN-MARC SEM 19 M 44 13.35
46 01:09:53 783 CHAPE REMI SEM 20 M 45 SLC MARTIGUES 13.31
47 01:09:55 730 ARNAUD-LEFEVRE JEAN-LOUIS V3M 1 M 46 KM42.195 MARSEILLE 13.30
48 01:09:58 750 BERENGER GILLES V1M 14 M 47 TRAIL CLUB DES FOUS 13.29
49 01:10:01 856 GRONCHI DAMIEN SEM 21 M 48 13.28
50 01:10:03 757 BONNEFOND DAMIEN SEM 22 M 49 13.28
51 01:10:10 896 LENFANT JAMES SEM 23 M 50 IRONTEX 13.25
52 01:10:15 1030 TREMBLEAU JULIEN SEM 24 M 51 OCCP LA CIOTAT 13.24
53 01:10:26 981 RAMSAY GREGORY V1M 15 M 52 13.20
54 01:10:31 978 POTY BERTRAND V2M 12 M 53 LES JOGGEURS AUBAGNAIS 13.19
55 01:10:35 1116 MOREL OLIVIER SEM 25 M 54 13.18
56 01:10:38 1081 LIZZARRALOZ JEAN-CLAUDE V2M 13 M 55 13.17
57 01:11:15 796 CORTES THIERRY SEM 26 M 56 9.9
58 01:11:35 728 ANDREANI PIERRE V2M 14 M 57 9.9
59 01:11:44 793 COQUARD FREDERIC SEM 27 M 58 9.9
60 01:11:48 734 AUFORE ALEXIS SEM 28 M 59 9.9
61 01:11:50 838 FLORYSZCZAK JULIEN SEM 29 M 60 9.9
62 01:12:05 928 MARTINEZ ANGE V1M 16 M 61 TRAIL CLUB DES FOUS 9.9
63 01:12:07 884 KOUROUYAN LIONEL V1M 17 M 62 C.A.PLAN DE CUQUES 9.9
64 01:12:13 1012 SOUCHAL JEAN V1M 18 M 63 9.9
65 01:12:15 1123 PEREZ PHILIPPE V1M 19 M 64 9.9
66 01:12:17 975 PINET JEAN-PAUL V3M 2 M 65 9.9
67 01:12:28 1099 VANDEWALLE GAUTHIER SEM 30 M 66 TRIATHLON DU PAYS GRASSOIS 9.9
68 01:12:31 996 SANTILLI JEROME SEM 31 M 67 KM42.195 MARSEILLE 9.9
69 01:12:41 789 CHIAPPA DOMINIQUE SEM 32 M 68 9.9
70 01:12:52 904 LIGER ANTHONY SEM 33 M 69 9.9
71 01:12:58 1070 QUENNEPOIX BENOIT SEM 34 M 70 9.9
72 01:13:00 833 FARSY PHILIPPE V2M 15 M 71 9.9
73 01:13:01 807 DANTI FRANCOIS V1M 20 M 72 9.9
74 01:13:07 801 CROUHY FLORENT SEM 35 M 73 9.9
75 01:13:09 720 ADAM MARC V2M 16 M 74 9.9
76 01:13:20 936 MERCADO FRANCISCO V2M 17 M 75 CA VEYNES 9.9
77 01:13:31 835 FERNANDEZ FREDERIC SEM 36 M 76 9.9
78 01:13:41 958 NAVARRO SERGE V2M 18 M 77 ISTRES SPORTS TRIATHLON 9.9
79 01:13:54 744 BENCHENNI AHMED V1M 21 M 78 KM42.195 MARSEILLE 9.9
80 01:13:57 887 LACAPELLE CAROLINE V1F 1 F 2 TRIATHLON LA CIOTAT 9.9
81 01:13:59 790 CLERIN BERNARD V2M 19 M 79 KM42.195 MARSEILLE 9.9
82 01:14:09 947 MILLIER CLEMENT SEM 37 M 80 LA CIOTAT TRIATHLON 9.9
83 01:14:16 1017 SUZANNE REMY V1M 22 M 81 LA FOULEE DE GREASQUE 9.9
84 01:14:29 1053 BERTHET-PILON DIDIER V2M 20 M 82 FOULEE DE GREASQUE 9.9
85 01:14:34 745 BENEDETTO GUY V2M 21 M 83 KM42.195 MARSEILLE 9.9
86 01:14:37 739 BARDOT OLIVIER V2M 22 M 84 KM42.195 MARSEILLE 9.9
87 01:14:40 747 BENLARBI SAID V2M 23 M 85 9.9
88 01:14:43 721 AITRADI SAID V3M 3 M 86 CA VEYNES 9.9
89 01:14:45 1022 TESTOT ALAIN V1M 23 M 87 9.9
90 01:14:47 785 CHASTRE BASTIEN SEM 38 M 88 TRAIL CLUB DES FOUS 9.9
91 01:14:50 973 PICCITTO THOMAS SEM 39 M 89 TRAIL CLUB DES FOUS 9.9
92 01:14:52 877 JOLY EMMANUEL V1M 24 M 90 TRAIL CLUB OLLIOULES 9.9
93 01:14:55 792 CONOTTE GEORGES V3M 4 M 91 9.9
94 01:15:05 1000 SCHEINER PERRINE SEF 2 F 3 TEAM ENDURANCE SHOP/MARSEILLE TRAIL CLUB 9.9
95 01:15:17 1087 GEVIA JEAN-MICHEL V2M 24 M 92 9.9
96 01:15:21 906 LIVERNETTE NATHALIE V1F 2 F 4 LA FOULEE DE GREASQUE 9.9
97 01:15:29 945 MIKIKIAN STEPHAN V1M 25 M 93 GEMTRIATHLE 9.9
98 01:15:36 743 BENARD PIERRICK SEM 40 M 94 9.9
99 01:15:44 1045 ZANINI PATRICK V3M 5 M 95 KM42.195 MARSEILLE 9.9
100 01:15:45 852 GINESTE ALAIN SEM 41 M 96 9.9